createdAt,value
2023-04-22T00:01:26.236Z,9.81
2023-04-22T00:03:53.662Z,9.80
2023-04-22T00:06:20.491Z,9.80
2023-04-22T00:08:47.155Z,9.80
2023-04-22T00:11:13.817Z,9.79
2023-04-22T00:13:40.478Z,9.79
2023-04-22T00:16:07.476Z,9.75
2023-04-22T00:18:36.220Z,9.72
2023-04-22T00:21:08.208Z,9.68
2023-04-22T00:23:35.087Z,9.69
2023-04-22T00:26:02.267Z,9.71
2023-04-22T00:28:29.059Z,9.70
2023-04-22T00:30:58.830Z,9.68
2023-04-22T00:33:25.714Z,9.67
2023-04-22T00:35:54.707Z,9.66
2023-04-22T00:38:21.628Z,9.68
2023-04-22T00:40:48.371Z,9.69
2023-04-22T00:43:16.967Z,9.69
2023-04-22T00:45:44.553Z,9.70
2023-04-22T00:48:13.055Z,9.72
2023-04-22T00:50:39.789Z,9.72
2023-04-22T00:53:06.669Z,9.75
2023-04-22T00:55:36.536Z,9.77
2023-04-22T00:58:03.742Z,9.79
2023-04-22T01:00:31.028Z,9.78
2023-04-22T01:02:58.513Z,9.76
2023-04-22T01:05:25.859Z,9.73
2023-04-22T01:07:52.584Z,9.69
2023-04-22T01:10:19.747Z,9.70
2023-04-22T01:12:46.400Z,9.69
2023-04-22T01:15:13.339Z,9.70
2023-04-22T01:17:40.095Z,9.72
2023-04-22T01:20:10.342Z,9.74
2023-04-22T01:22:42.762Z,9.73
2023-04-22T01:25:11.357Z,9.71
2023-04-22T01:27:39.328Z,9.69
2023-04-22T01:30:07.161Z,9.68
2023-04-22T01:32:34.034Z,9.66
2023-04-22T01:35:00.748Z,9.62
2023-04-22T01:37:28.396Z,9.61
2023-04-22T01:39:55.673Z,9.60
2023-04-22T01:42:22.565Z,9.60
2023-04-22T01:44:49.160Z,9.60
2023-04-22T01:47:15.874Z,9.61
2023-04-22T01:49:42.916Z,9.65
2023-04-22T01:52:09.903Z,9.66
2023-04-22T01:54:36.590Z,9.64
2023-04-22T01:57:10.032Z,9.65
2023-04-22T01:59:36.889Z,9.61
2023-04-22T02:02:03.984Z,9.60
2023-04-22T02:04:32.100Z,9.57
2023-04-22T02:06:58.926Z,9.59
2023-04-22T02:09:25.568Z,9.58
2023-04-22T02:11:52.257Z,9.55
2023-04-22T02:14:18.869Z,9.57
2023-04-22T02:16:45.574Z,9.61
2023-04-22T02:19:12.174Z,9.63
2023-04-22T02:21:38.826Z,9.66
2023-04-22T02:24:05.892Z,9.61
2023-04-22T02:26:32.586Z,9.60
2023-04-22T02:28:59.253Z,9.60
2023-04-22T02:31:26.026Z,9.57
2023-04-22T02:33:52.774Z,9.55
2023-04-22T02:36:19.358Z,9.57
2023-04-22T02:38:46.250Z,9.54
2023-04-22T02:41:12.817Z,9.53
2023-04-22T02:43:39.541Z,9.49
2023-04-22T02:46:06.339Z,9.50
2023-04-22T02:48:32.982Z,9.50
2023-04-22T02:50:59.568Z,9.50
2023-04-22T02:53:26.139Z,9.47
2023-04-22T02:55:52.791Z,9.45
2023-04-22T02:58:19.519Z,9.45
2023-04-22T03:00:46.238Z,9.46
2023-04-22T03:03:13.441Z,9.43
2023-04-22T03:05:40.611Z,9.43
2023-04-22T03:08:07.259Z,9.44
2023-04-22T03:10:33.998Z,9.47
2023-04-22T03:13:00.643Z,9.48
2023-04-22T03:15:27.368Z,9.46
2023-04-22T03:17:54.032Z,9.42
2023-04-22T03:20:20.965Z,9.40
2023-04-22T03:22:47.652Z,9.38
2023-04-22T03:25:14.737Z,9.38
2023-04-22T03:27:41.447Z,9.36
2023-04-22T03:30:09.695Z,9.35
2023-04-22T03:32:36.456Z,9.35
2023-04-22T03:35:03.184Z,9.37
2023-04-22T03:37:29.889Z,9.37
2023-04-22T03:39:56.520Z,9.37
2023-04-22T03:42:23.259Z,9.35
2023-04-22T03:44:49.919Z,9.32
2023-04-22T03:47:16.608Z,9.29
2023-04-22T03:49:43.756Z,9.28
2023-04-22T03:52:10.644Z,9.26
2023-04-22T03:54:37.282Z,9.25
2023-04-22T03:57:04.007Z,9.24
2023-04-22T03:59:30.673Z,9.24
2023-04-22T04:01:57.445Z,9.26
2023-04-22T04:04:24.602Z,9.27
2023-04-22T04:06:51.569Z,9.27
2023-04-22T04:09:18.236Z,9.28
2023-04-22T04:11:44.881Z,9.27
2023-04-22T04:14:11.515Z,9.26
2023-04-22T04:16:39.163Z,9.28
2023-04-22T04:19:06.431Z,9.28
2023-04-22T04:21:34.268Z,9.26
2023-04-22T04:24:00.973Z,9.23
2023-04-22T04:26:28.839Z,9.23
2023-04-22T04:28:55.894Z,9.22
2023-04-22T04:31:25.026Z,9.23
2023-04-22T04:33:52.494Z,9.23
2023-04-22T04:36:19.904Z,9.27
2023-04-22T04:38:47.803Z,9.29
2023-04-22T04:41:14.628Z,9.28
2023-04-22T04:43:41.308Z,9.28
2023-04-22T04:46:08.464Z,9.26
2023-04-22T04:48:36.339Z,9.24
2023-04-22T04:51:04.505Z,9.24
2023-04-22T04:53:31.101Z,9.21
2023-04-22T04:55:57.721Z,9.15
2023-04-22T04:58:24.421Z,9.14
2023-04-22T05:00:51.273Z,9.11
2023-04-22T05:03:19.874Z,9.10
2023-04-22T05:05:48.939Z,9.11
2023-04-22T05:08:15.682Z,9.08
2023-04-22T05:10:42.747Z,9.06
2023-04-22T05:13:09.366Z,9.04
2023-04-22T05:15:36.218Z,9.01
2023-04-22T05:18:03.122Z,9.00
2023-04-22T05:20:29.828Z,8.99
2023-04-22T05:22:56.446Z,9.01
2023-04-22T05:25:24.236Z,9.02
2023-04-22T05:27:59.684Z,9.04
2023-04-22T05:30:27.480Z,9.04
2023-04-22T05:32:54.165Z,9.05
2023-04-22T05:35:20.924Z,9.06
2023-04-22T05:37:47.585Z,9.07
2023-04-22T05:40:14.186Z,9.09
2023-04-22T05:42:40.872Z,9.12
2023-04-22T05:45:08.337Z,9.13
2023-04-22T05:47:35.084Z,9.10
2023-04-22T05:50:01.764Z,9.07
2023-04-22T05:52:28.471Z,9.08
2023-04-22T05:54:55.037Z,9.08
2023-04-22T05:57:21.761Z,9.07
2023-04-22T05:59:48.449Z,9.05
2023-04-22T06:02:16.256Z,9.02
2023-04-22T06:04:43.370Z,9.04
2023-04-22T06:07:10.541Z,9.04
2023-04-22T06:09:38.402Z,9.02
2023-04-22T06:12:06.166Z,9.03
2023-04-22T06:14:32.798Z,9.06
2023-04-22T06:16:59.435Z,9.05
2023-04-22T06:19:26.162Z,9.05
2023-04-22T06:21:53.615Z,9.06
2023-04-22T06:24:22.331Z,9.05
2023-04-22T06:26:49.151Z,9.04
2023-04-22T06:29:16.070Z,9.03
2023-04-22T06:31:42.829Z,9.03
2023-04-22T06:34:09.503Z,9.00
2023-04-22T06:36:37.748Z,9.01
2023-04-22T06:39:05.783Z,9.02
2023-04-22T06:41:33.226Z,9.06
2023-04-22T06:43:59.858Z,9.12
2023-04-22T06:46:26.702Z,9.22
2023-04-22T06:48:53.448Z,9.30
2023-04-22T06:51:20.064Z,9.36
2023-04-22T06:53:46.708Z,9.41
2023-04-22T06:56:13.485Z,9.47
2023-04-22T06:58:40.058Z,9.55
2023-04-22T07:01:06.752Z,9.61
2023-04-22T07:03:34.150Z,9.64
2023-04-22T07:06:01.182Z,9.67
2023-04-22T07:08:27.994Z,9.70
2023-04-22T07:10:54.845Z,9.75
2023-04-22T07:13:21.560Z,9.77
2023-04-22T07:15:48.261Z,9.76
2023-04-22T07:18:14.922Z,9.77
2023-04-22T07:20:41.519Z,9.76
2023-04-22T07:23:08.180Z,9.71
2023-04-22T07:25:34.811Z,9.65
2023-04-22T07:28:01.409Z,9.57
2023-04-22T07:30:28.084Z,9.52
2023-04-22T07:32:56.126Z,9.48
2023-04-22T07:35:23.338Z,9.49
2023-04-22T07:37:50.049Z,9.45
2023-04-22T07:40:16.813Z,9.40
2023-04-22T07:42:43.466Z,9.39
2023-04-22T07:45:10.853Z,9.39
2023-04-22T07:47:37.555Z,9.36
2023-04-22T07:50:04.661Z,9.34
2023-04-22T07:52:31.452Z,9.34
2023-04-22T07:54:59.121Z,9.35
2023-04-22T07:57:26.034Z,9.37
2023-04-22T07:59:52.789Z,9.39
2023-04-22T08:02:19.732Z,9.38
2023-04-22T08:04:46.585Z,9.35
2023-04-22T08:07:31.760Z,9.34
2023-04-22T08:09:59.759Z,9.31
2023-04-22T08:12:26.409Z,9.27
2023-04-22T08:14:53.052Z,9.27
2023-04-22T08:17:22.071Z,9.26
2023-04-22T08:19:49.285Z,9.26
2023-04-22T08:22:17.851Z,9.24
2023-04-22T08:24:44.874Z,9.23
2023-04-22T08:27:11.852Z,9.22
2023-04-22T08:29:38.672Z,9.25
2023-04-22T08:32:05.660Z,9.26
2023-04-22T08:34:32.289Z,9.27
2023-04-22T08:36:59.078Z,9.26
2023-04-22T08:39:25.852Z,9.27
2023-04-22T08:41:53.335Z,9.25
2023-04-22T08:44:21.907Z,9.23
2023-04-22T08:46:49.267Z,9.22
2023-04-22T08:49:16.310Z,9.25
2023-04-22T08:51:44.308Z,9.24
2023-04-22T08:54:12.979Z,9.24
2023-04-22T08:56:45.319Z,9.22
2023-04-22T08:59:12.894Z,9.23
2023-04-22T09:01:41.430Z,9.21
2023-04-22T09:04:10.955Z,9.21
2023-04-22T09:06:39.170Z,9.25
2023-04-22T09:09:06.091Z,9.26
2023-04-22T09:11:33.429Z,9.28
2023-04-22T09:14:00.159Z,9.29
2023-04-22T09:16:26.786Z,9.31
2023-04-22T09:18:53.523Z,9.28
2023-04-22T09:21:20.375Z,9.27
2023-04-22T09:23:54.310Z,9.28
2023-04-22T09:26:23.487Z,9.26
2023-04-22T09:29:01.166Z,9.26
2023-04-22T09:31:28.939Z,9.31
2023-04-22T09:33:59.087Z,9.34
2023-04-22T09:36:30.285Z,9.39
2023-04-22T09:39:00.053Z,9.43
2023-04-22T09:41:38.754Z,9.45
2023-04-22T09:44:16.094Z,9.44
2023-04-22T09:46:44.309Z,9.38
2023-04-22T09:49:11.374Z,9.33
2023-04-22T09:51:41.512Z,9.27
2023-04-22T09:54:10.450Z,9.27
2023-04-22T09:57:04.028Z,9.28
2023-04-22T09:59:32.023Z,9.27
2023-04-22T10:02:01.274Z,9.29
2023-04-22T10:04:28.445Z,9.25
2023-04-22T10:06:55.896Z,9.25
2023-04-22T10:09:24.202Z,9.24
2023-04-22T10:11:54.098Z,9.22
2023-04-22T10:14:24.570Z,9.19
2023-04-22T10:16:54.419Z,9.24
2023-04-22T10:19:23.610Z,9.32
2023-04-22T10:21:56.174Z,9.40
2023-04-22T10:24:27.159Z,9.42
2023-04-22T10:26:57.799Z,9.44
2023-04-22T10:29:27.371Z,9.47
2023-04-22T10:31:59.641Z,9.53
2023-04-22T10:34:26.205Z,9.62
2023-04-22T10:36:57.529Z,9.73
2023-04-22T10:39:25.360Z,9.77
2023-04-22T10:41:54.345Z,9.85
2023-04-22T10:44:22.725Z,9.91
2023-04-22T10:46:52.968Z,9.98
2023-04-22T10:49:24.566Z,10.02
2023-04-22T10:51:55.558Z,10.01
2023-04-22T10:54:31.545Z,10.07
2023-04-22T10:57:08.591Z,10.16
2023-04-22T10:59:42.308Z,10.19
2023-04-22T11:02:12.066Z,10.19
2023-04-22T11:04:39.949Z,10.22
2023-04-22T11:07:13.418Z,10.24
2023-04-22T11:09:41.333Z,10.20
2023-04-22T11:12:35.963Z,10.20
2023-04-22T11:15:10.595Z,10.18
2023-04-22T11:17:38.414Z,10.22
2023-04-22T11:20:07.427Z,10.25
2023-04-22T11:22:39.757Z,10.25
2023-04-22T11:25:06.770Z,10.16
2023-04-22T11:27:33.466Z,10.01
2023-04-22T11:30:07.637Z,9.82
2023-04-22T11:32:39.001Z,9.68
2023-04-22T11:35:08.419Z,9.54
2023-04-22T11:37:52.623Z,9.38
2023-04-22T11:40:30.627Z,9.25
2023-04-22T11:43:00.254Z,9.10
2023-04-22T11:45:28.630Z,9.03
2023-04-22T11:47:56.563Z,8.98
2023-04-22T11:50:28.528Z,8.90
2023-04-22T11:53:01.287Z,8.90
2023-04-22T11:55:38.313Z,8.88
2023-04-22T11:58:08.196Z,8.86
2023-04-22T12:01:01.272Z,8.89
2023-04-22T12:03:30.202Z,8.88
2023-04-22T12:05:59.678Z,8.87
2023-04-22T12:08:30.601Z,8.91
2023-04-22T12:10:59.737Z,8.95
2023-04-22T12:13:30.403Z,8.99
2023-04-22T12:16:13.968Z,8.99
2023-04-22T12:18:47.969Z,9.00
2023-04-22T12:21:17.379Z,9.03
2023-04-22T12:23:45.792Z,9.02
2023-04-22T12:26:13.678Z,9.01
2023-04-22T12:28:40.989Z,8.99
2023-04-22T12:31:08.700Z,8.95
2023-04-22T12:33:36.484Z,8.92
2023-04-22T12:36:03.881Z,8.94
2023-04-22T12:38:30.722Z,8.91
2023-04-22T12:40:58.598Z,8.97
2023-04-22T12:43:25.721Z,8.99
2023-04-22T12:45:52.461Z,8.98
2023-04-22T12:48:19.237Z,8.99
2023-04-22T12:50:46.482Z,8.95
2023-04-22T12:53:13.176Z,8.99
2023-04-22T12:55:41.069Z,9.08
2023-04-22T12:58:08.124Z,9.17
2023-04-22T13:00:36.068Z,9.25
2023-04-22T13:03:03.719Z,9.28
2023-04-22T13:05:32.847Z,9.32
2023-04-22T13:08:07.361Z,9.37
2023-04-22T13:10:35.840Z,9.43
2023-04-22T13:15:37.691Z,9.48
2023-04-22T13:18:04.429Z,9.54
2023-04-22T13:20:31.142Z,9.52
2023-04-22T13:22:58.636Z,9.57
2023-04-22T13:25:25.339Z,9.58
2023-04-22T13:27:52.056Z,9.57
2023-04-22T13:30:18.798Z,9.54
2023-04-22T13:32:45.880Z,9.52
2023-04-22T13:35:12.840Z,9.54
2023-04-22T13:37:39.485Z,9.57
2023-04-22T13:40:06.784Z,9.60
2023-04-22T13:42:33.673Z,9.62
2023-04-22T13:45:00.854Z,9.61
2023-04-22T13:47:27.679Z,9.60
2023-04-22T13:49:54.353Z,9.53
2023-04-22T13:52:21.000Z,9.48
2023-04-22T13:54:47.774Z,9.45
2023-04-22T13:57:14.390Z,9.45
2023-04-22T13:59:41.694Z,9.45
2023-04-22T14:02:08.690Z,9.47
2023-04-22T14:04:35.477Z,9.40
2023-04-22T14:07:02.722Z,9.41
2023-04-22T14:09:29.442Z,9.45
2023-04-22T14:11:56.993Z,9.43
2023-04-22T14:14:23.793Z,9.41
2023-04-22T14:16:51.939Z,9.41
2023-04-22T14:19:18.757Z,9.48
2023-04-22T14:21:45.738Z,9.49
2023-04-22T14:24:12.494Z,9.51
2023-04-22T14:26:39.156Z,9.51
2023-04-22T14:29:05.859Z,9.50
2023-04-22T14:31:32.797Z,9.50
2023-04-22T14:33:59.457Z,9.53
2023-04-22T14:36:28.801Z,9.62
2023-04-22T14:38:55.518Z,9.67
2023-04-22T14:41:22.398Z,9.71
2023-04-22T14:43:49.107Z,9.76
2023-04-22T14:46:15.779Z,9.79
2023-04-22T14:48:42.700Z,9.77
2023-04-22T14:51:09.523Z,9.77
2023-04-22T14:53:36.512Z,9.77
2023-04-22T14:56:03.665Z,9.77
2023-04-22T14:58:33.181Z,9.75
2023-04-22T15:01:01.197Z,9.76
2023-04-22T15:03:28.210Z,9.79
2023-04-22T15:05:55.768Z,9.78
2023-04-22T15:08:25.202Z,9.80
2023-04-22T15:10:52.014Z,9.85
2023-04-22T15:13:19.758Z,9.89
2023-04-22T15:15:46.884Z,9.91
2023-04-22T15:18:13.865Z,9.98
2023-04-22T15:20:41.494Z,10.06
2023-04-22T15:23:08.159Z,10.10
2023-04-22T15:25:35.887Z,10.10
2023-04-22T15:28:03.238Z,10.12
2023-04-22T15:30:30.918Z,10.12
2023-04-22T15:32:57.619Z,10.10
2023-04-22T15:35:24.613Z,10.04
2023-04-22T15:37:52.680Z,10.00
2023-04-22T15:40:19.425Z,9.96
2023-04-22T15:42:46.154Z,9.87
2023-04-22T15:45:13.159Z,9.82
2023-04-22T15:47:40.771Z,9.86
2023-04-22T15:50:09.442Z,9.90
2023-04-22T15:52:38.405Z,9.99
2023-04-22T15:55:06.481Z,10.05
2023-04-22T15:57:35.379Z,10.14
2023-04-22T16:00:11.659Z,10.21
2023-04-22T16:02:40.781Z,10.28
2023-04-22T16:05:08.145Z,10.39
2023-04-22T16:07:35.368Z,10.51
2023-04-22T16:10:04.056Z,10.72
2023-04-22T16:12:34.184Z,10.97
2023-04-22T16:15:01.431Z,11.04
2023-04-22T16:17:28.336Z,11.08
2023-04-22T16:19:55.237Z,11.12
2023-04-22T16:22:21.909Z,11.26
2023-04-22T16:24:48.767Z,11.55
2023-04-22T16:27:18.162Z,11.76
2023-04-22T16:29:45.128Z,11.83
2023-04-22T16:32:12.114Z,11.86
2023-04-22T16:34:39.001Z,12.00
2023-04-22T16:37:08.573Z,12.22
2023-04-22T16:39:35.478Z,12.32
2023-04-22T16:42:03.046Z,12.37
2023-04-22T16:44:29.856Z,12.46
2023-04-22T16:46:56.520Z,12.46
2023-04-22T16:49:23.213Z,12.40
2023-04-22T16:51:49.968Z,12.31
2023-04-22T16:54:16.608Z,12.17
2023-04-22T16:56:43.180Z,11.99
2023-04-22T16:59:09.911Z,11.86
2023-04-22T17:01:36.684Z,11.72
2023-04-22T17:04:03.530Z,11.52
2023-04-22T17:06:31.327Z,11.39
2023-04-22T17:08:58.232Z,11.22
2023-04-22T17:11:25.392Z,11.12
2023-04-22T17:13:53.042Z,10.98
2023-04-22T17:16:19.774Z,10.86
2023-04-22T17:18:47.683Z,10.76
2023-04-22T17:21:14.953Z,10.70
2023-04-22T17:23:41.604Z,10.62
2023-04-22T17:26:08.593Z,10.52
2023-04-22T17:28:35.659Z,10.46
2023-04-22T17:31:03.947Z,10.40
2023-04-22T17:33:31.346Z,10.32
2023-04-22T17:35:58.061Z,10.24
2023-04-22T17:38:24.732Z,10.16
2023-04-22T17:40:51.397Z,10.10
2023-04-22T17:43:18.168Z,10.02
2023-04-22T17:45:44.795Z,9.95
2023-04-22T17:48:11.434Z,9.86
2023-04-22T17:50:38.088Z,9.86
2023-04-22T17:53:04.793Z,9.90
2023-04-22T17:55:35.073Z,9.85
2023-04-22T17:58:02.542Z,9.82
2023-04-22T18:00:29.455Z,9.84
2023-04-22T18:02:56.398Z,9.80
2023-04-22T18:05:23.342Z,9.78
2023-04-22T18:07:50.313Z,9.75
2023-04-22T18:10:16.994Z,9.71
2023-04-22T18:12:43.834Z,9.64
2023-04-22T18:15:10.728Z,9.63
2023-04-22T18:17:37.397Z,9.65
2023-04-22T18:20:16.498Z,9.62
2023-04-22T18:22:43.967Z,9.62
2023-04-22T18:25:10.747Z,9.63
2023-04-22T18:27:37.413Z,9.60
2023-04-22T18:30:04.754Z,9.59
2023-04-22T18:32:31.561Z,9.57
2023-04-22T18:34:58.565Z,9.58
2023-04-22T18:37:29.646Z,9.59
2023-04-22T18:39:57.746Z,9.60
2023-04-22T18:42:24.624Z,9.60
2023-04-22T18:44:51.341Z,9.52
2023-04-22T18:47:17.982Z,9.43
2023-04-22T18:49:45.547Z,9.40
2023-04-22T18:52:12.918Z,9.42
2023-04-22T18:54:39.856Z,9.43
2023-04-22T18:57:06.943Z,9.39
2023-04-22T18:59:33.664Z,9.37
2023-04-22T19:02:00.597Z,9.31
2023-04-22T19:04:27.713Z,9.28
2023-04-22T19:06:57.011Z,9.26
2023-04-22T19:09:24.052Z,9.26
2023-04-22T19:11:50.817Z,9.27
2023-04-22T19:14:17.582Z,9.25
2023-04-22T19:16:44.364Z,9.24
2023-04-22T19:19:12.226Z,9.18
2023-04-22T19:21:39.622Z,9.14
2023-04-22T19:24:06.690Z,9.09
2023-04-22T19:26:34.411Z,9.00
2023-04-22T19:29:04.914Z,8.90
2023-04-22T19:31:33.092Z,8.84
2023-04-22T19:34:03.962Z,8.79
2023-04-22T19:36:51.289Z,8.72
2023-04-22T19:39:37.953Z,8.65
2023-04-22T19:42:05.857Z,8.63
2023-04-22T19:44:32.731Z,8.62
2023-04-22T19:46:59.478Z,8.59
2023-04-22T19:49:26.566Z,8.60
2023-04-22T19:51:53.907Z,8.61
2023-04-22T19:54:21.997Z,8.64
2023-04-22T19:56:49.201Z,8.65
2023-04-22T19:59:16.072Z,8.64
2023-04-22T20:01:43.171Z,8.69
2023-04-22T20:04:10.192Z,8.69
2023-04-22T20:06:37.772Z,8.68
2023-04-22T20:09:05.805Z,8.67
2023-04-22T20:11:33.049Z,8.64
2023-04-22T20:14:00.119Z,8.64
2023-04-22T20:16:27.873Z,8.67
2023-04-22T20:18:55.355Z,8.65
2023-04-22T20:21:22.321Z,8.62
2023-04-22T20:23:51.119Z,8.59
2023-04-22T20:26:21.400Z,8.60
2023-04-22T20:28:52.148Z,8.57
2023-04-22T20:31:20.646Z,8.58
2023-04-22T20:33:47.535Z,8.58
2023-04-22T20:36:17.070Z,8.56
2023-04-22T20:38:48.734Z,8.55
2023-04-22T20:41:19.048Z,8.51
2023-04-22T20:43:46.672Z,8.49
2023-04-22T20:46:13.460Z,8.43
2023-04-22T20:48:40.121Z,8.44
2023-04-22T20:51:07.063Z,8.41
2023-04-22T20:53:36.299Z,8.40
2023-04-22T20:56:03.253Z,8.38
2023-04-22T20:58:30.154Z,8.38
2023-04-22T21:00:56.975Z,8.35
2023-04-22T21:03:25.243Z,8.34
2023-04-22T21:05:52.401Z,8.31
2023-04-22T21:08:23.411Z,8.25
2023-04-22T21:10:52.797Z,8.21
2023-04-22T21:13:19.971Z,8.16
2023-04-22T21:16:08.976Z,8.14
2023-04-22T21:18:44.662Z,8.14
2023-04-22T21:21:14.234Z,8.15
2023-04-22T21:23:42.211Z,8.14
2023-04-22T21:26:10.099Z,8.09
2023-04-22T21:28:37.656Z,8.06
2023-04-22T21:31:04.807Z,8.04
2023-04-22T21:33:33.360Z,8.03
2023-04-22T21:36:00.502Z,8.04
2023-04-22T21:38:27.436Z,8.07
2023-04-22T21:40:54.197Z,8.06
2023-04-22T21:43:20.890Z,8.07
2023-04-22T21:45:47.514Z,8.09
2023-04-22T21:48:14.152Z,8.04
2023-04-22T21:50:41.916Z,8.04
2023-04-22T21:53:08.560Z,8.01
2023-04-22T21:55:35.181Z,8.03
2023-04-22T21:58:01.900Z,8.03
2023-04-22T22:00:28.669Z,8.03
2023-04-22T22:02:55.418Z,8.03
2023-04-22T22:05:22.210Z,8.06
2023-04-22T22:07:49.118Z,8.05
2023-04-22T22:10:19.209Z,8.08
2023-04-22T22:12:46.978Z,8.10
2023-04-22T22:15:13.679Z,8.10
2023-04-22T22:17:40.399Z,8.07
2023-04-22T22:20:12.061Z,8.05
2023-04-22T22:22:40.784Z,8.05
2023-04-22T22:25:12.552Z,8.07
2023-04-22T22:27:48.687Z,8.10
2023-04-22T22:30:16.845Z,8.12
2023-04-22T22:32:43.559Z,8.10
2023-04-22T22:35:10.820Z,8.09
2023-04-22T22:37:38.663Z,8.11
2023-04-22T22:40:06.336Z,8.09
2023-04-22T22:42:32.963Z,8.07
2023-04-22T22:44:59.635Z,8.07
2023-04-22T22:47:26.638Z,8.06
2023-04-22T22:49:53.617Z,8.07
2023-04-22T22:52:20.361Z,8.11
2023-04-22T22:54:48.976Z,8.12
2023-04-22T22:57:16.336Z,8.08
2023-04-22T22:59:43.026Z,8.06
2023-04-22T23:02:10.155Z,8.03
2023-04-22T23:04:37.577Z,7.99
2023-04-22T23:07:04.411Z,7.95
2023-04-22T23:09:31.102Z,7.96
2023-04-22T23:11:58.489Z,7.92
2023-04-22T23:14:28.232Z,7.88
2023-04-22T23:16:54.886Z,7.83
2023-04-22T23:19:21.953Z,7.80
2023-04-22T23:21:49.986Z,7.77
2023-04-22T23:24:17.082Z,7.75
2023-04-22T23:26:44.128Z,7.76
2023-04-22T23:29:11.030Z,7.75
2023-04-22T23:31:41.756Z,7.70
2023-04-22T23:34:09.492Z,7.68
2023-04-22T23:36:37.416Z,7.65
2023-04-22T23:39:06.644Z,7.64
2023-04-22T23:41:33.666Z,7.61
2023-04-22T23:44:00.388Z,7.59
2023-04-22T23:46:27.150Z,7.58
2023-04-22T23:48:54.443Z,7.60
2023-04-22T23:51:21.178Z,7.58
2023-04-22T23:53:47.812Z,7.58
2023-04-22T23:56:14.929Z,7.60
2023-04-22T23:58:42.015Z,7.61
